Time;durP1;ratioP1;P1;durP2;ratioP2;P2;SDS_P1;SDS_P2;PMS_P1;PMS_P2;Temp;Humidity;BMP_temperature;BMP_pressure;BME280_temperature;BME280_humidity;BME280_pressure;Samples;Min_cycle;Max_cycle;Signal;HPM_P1;HPM_P2
2021/06/02 00:01:40;;;;;;;4.05;1.85;;;;;;;11.24;64.80;98612.81;5013289;28;20053;-73
2021/06/02 00:04:07;;;;;;;5.18;1.90;;;;;;;11.13;64.89;98611.59;5018841;28;20054;-71
2021/06/02 00:06:35;;;;;;;2.05;1.50;;;;;;;11.05;65.16;98617.22;5025751;28;20033;-71
2021/06/02 00:09:01;;;;;;;4.55;2.00;;;;;;;11.12;65.60;98615.34;5010766;28;20030;-71
2021/06/02 00:11:27;;;;;;;3.75;1.90;;;;;;;11.17;65.96;98602.00;5013290;28;20492;-71
2021/06/02 00:13:54;;;;;;;4.00;1.80;;;;;;;11.15;64.89;98611.38;5013174;28;20061;-71
2021/06/02 00:16:20;;;;;;;3.78;2.10;;;;;;;10.99;65.28;98599.13;5012871;28;20037;-71
2021/06/02 00:18:45;;;;;;;2.80;1.70;;;;;;;11.00;65.00;98617.00;5012038;28;20034;-71
2021/06/02 00:21:10;;;;;;;4.28;1.70;;;;;;;10.89;65.20;98604.13;5012566;28;20045;-71
2021/06/02 00:23:36;;;;;;;2.60;1.70;;;;;;;10.82;66.22;98604.16;5012056;28;20049;-71
2021/06/02 00:26:02;;;;;;;5.30;1.77;;;;;;;10.75;66.15;98606.03;5012664;28;20053;-70
2021/06/02 00:28:28;;;;;;;2.33;1.65;;;;;;;10.58;65.39;98604.78;5012521;28;20029;-70
2021/06/02 00:30:54;;;;;;;3.53;1.77;;;;;;;10.48;66.58;98599.78;5012960;28;20037;-71
2021/06/02 00:33:21;;;;;;;4.95;1.70;;;;;;;10.60;66.43;98606.22;5012678;28;20052;-71
2021/06/02 00:35:48;;;;;;;2.70;1.73;;;;;;;10.59;68.40;98609.16;5011430;28;20030;-72
2021/06/02 00:38:14;;;;;;;3.42;2.03;;;;;;;10.53;68.49;98589.16;5012388;28;20038;-71
2021/06/02 00:40:50;;;;;;;4.50;2.20;;;;;;;10.62;68.44;98590.63;5012633;28;20033;-71
2021/06/02 00:43:18;;;;;;;3.60;2.33;;;;;;;10.67;68.53;98607.06;5012512;28;20018;-71
2021/06/02 00:45:44;;;;;;;3.03;2.10;;;;;;;10.61;69.11;98613.31;5012758;28;20025;-71
2021/06/02 00:48:13;;;;;;;4.82;2.10;;;;;;;10.56;69.57;98610.41;5010932;28;20022;-71
2021/06/02 00:50:43;;;;;;;4.83;2.27;;;;;;;10.57;69.63;98614.75;5012362;28;20029;-71
2021/06/02 00:53:08;;;;;;;4.15;2.55;;;;;;;10.50;69.81;98608.50;5012383;28;20300;-71
2021/06/02 00:55:33;;;;;;;3.78;2.30;;;;;;;10.43;69.89;98605.00;5014103;28;20483;-71
2021/06/02 00:57:59;;;;;;;5.97;2.50;;;;;;;10.45;70.83;98602.88;5012234;28;20391;-71
2021/06/02 01:00:25;;;;;;;7.20;2.40;;;;;;;10.39;70.76;98612.66;5011309;28;20123;-72
2021/06/02 01:02:52;;;;;;;3.38;2.33;;;;;;;10.33;71.35;98618.09;5013588;28;20610;-71
2021/06/02 01:05:20;;;;;;;3.13;2.38;;;;;;;10.24;71.03;98617.41;5023528;28;20513;-71
2021/06/02 01:07:50;;;;;;;5.60;2.65;;;;;;;10.14;71.22;98617.81;5012067;28;20100;-71
2021/06/02 01:10:17;;;;;;;;;;;;;;;10.08;71.41;98619.44;5011381;28;20026;-73
2021/06/02 01:12:43;;;;;;;2.85;2.00;;;;;;;10.07;71.52;98616.97;5014179;28;20298;-72
2021/06/02 01:15:09;;;;;;;2.92;2.05;;;;;;;10.08;71.72;98616.75;5026602;28;20507;-71
2021/06/02 01:17:34;;;;;;;3.38;2.50;;;;;;;10.14;71.71;98607.00;5012048;28;20056;-71
2021/06/02 01:20:03;;;;;;;4.00;2.33;;;;;;;10.20;70.90;98616.16;5011955;28;20036;-72
2021/06/02 01:22:33;;;;;;;4.50;3.17;;;;;;;10.18;71.50;98620.94;5011740;28;20421;-71
2021/06/02 01:25:05;;;;;;;4.13;2.58;;;;;;;10.11;71.93;98623.63;4992688;28;20034;-71
2021/06/02 01:27:30;;;;;;;5.38;2.45;;;;;;;9.96;71.46;98621.09;5010946;28;20034;-71
2021/06/02 01:29:55;;;;;;;4.10;2.50;;;;;;;9.90;72.19;98632.69;5012228;28;20060;-71
2021/06/02 01:32:44;;;;;;;2.97;2.40;;;;;;;9.89;72.48;98622.94;5007847;28;20032;-71
2021/06/02 01:35:28;;;;;;;4.63;3.00;;;;;;;9.81;71.96;98623.13;5012074;28;20029;-72
2021/06/02 01:38:12;;;;;;;4.10;2.58;;;;;;;9.74;72.76;98624.97;5011623;28;20034;-71
2021/06/02 01:41:10;;;;;;;4.57;2.40;;;;;;;9.55;72.35;98623.88;5003130;28;20026;-71
2021/06/02 01:43:48;;;;;;;6.88;2.50;;;;;;;9.48;73.46;98629.22;5008401;28;20025;-70
2021/06/02 01:46:35;;;;;;;5.30;2.60;;;;;;;9.41;73.45;98628.38;5011533;28;20037;-71
2021/06/02 01:49:29;;;;;;;3.08;2.22;;;;;;;9.32;73.07;98630.38;5010458;28;20024;-71
2021/06/02 01:52:32;;;;;;;6.32;2.80;;;;;;;9.22;73.34;98632.59;5012638;28;20018;-71
2021/06/02 01:55:34;;;;;;;4.90;3.00;;;;;;;9.26;73.80;98631.19;5011177;28;20108;-71
2021/06/02 01:58:02;;;;;;;4.47;2.40;;;;;;;9.12;72.59;98626.75;5001073;28;20032;-71
2021/06/02 02:00:41;;;;;;;4.95;2.50;;;;;;;9.18;74.01;98624.09;5011436;28;20399;-72
2021/06/02 02:03:35;;;;;;;4.32;2.40;;;;;;;9.08;74.02;98622.78;5010876;28;20021;-72
2021/06/02 02:06:31;;;;;;;3.85;2.30;;;;;;;9.11;74.38;98635.88;5011752;28;20116;-71
2021/06/02 02:09:05;;;;;;;3.83;2.50;;;;;;;9.12;74.85;98634.84;5012790;28;20068;-71
2021/06/02 02:11:36;;;;;;;8.13;3.03;;;;;;;8.90;74.91;98615.19;5011285;28;20037;-71
2021/06/02 02:14:12;;;;;;;5.10;2.70;;;;;;;9.03;75.16;98631.47;5017181;28;20029;-71
2021/06/02 02:17:22;;;;;;;3.58;2.50;;;;;;;8.99;75.29;98617.53;5011371;28;20213;-72
2021/06/02 02:20:01;;;;;;;4.13;2.72;;;;;;;8.85;74.45;98610.38;5008020;28;20435;-72
2021/06/02 02:22:59;;;;;;;3.35;2.28;;;;;;;8.74;74.98;98610.94;5001226;28;20018;-71
2021/06/02 02:25:27;;;;;;;3.80;2.35;;;;;;;8.68;75.28;98631.44;5011090;28;20022;-71
2021/06/02 02:28:18;;;;;;;3.15;2.15;;;;;;;8.58;75.23;98630.09;5012960;28;20545;-71
2021/06/02 02:30:58;;;;;;;3.75;2.50;;;;;;;8.68;75.71;98634.13;5011183;28;20030;-70
2021/06/02 02:33:52;;;;;;;3.13;2.45;;;;;;;8.70;76.03;98634.78;5004864;28;20491;-71
2021/06/02 02:36:34;;;;;;;3.13;2.38;;;;;;;8.56;75.52;98631.09;5011245;28;20037;-72
2021/06/02 02:39:04;;;;;;;7.55;2.72;;;;;;;8.54;75.72;98632.34;5013810;28;20124;-72
2021/06/02 02:41:59;;;;;;;3.60;2.53;;;;;;;8.66;75.50;98638.03;5010522;28;20029;-72
2021/06/02 02:45:03;;;;;;;3.40;2.30;;;;;;;8.66;75.90;98648.84;4991930;28;20045;-71
2021/06/02 02:47:47;;;;;;;4.93;2.70;;;;;;;8.56;75.85;98649.16;4990921;28;20046;-71
2021/06/02 02:50:15;;;;;;;3.55;2.45;;;;;;;8.52;76.78;98656.81;5012595;28;20041;-71
2021/06/02 02:53:04;;;;;;;3.63;2.38;;;;;;;8.53;76.51;98652.25;5012795;28;20018;-72
2021/06/02 02:55:31;;;;;;;;;;;;;;;8.59;76.51;98654.16;5014264;28;20029;-71
2021/06/02 02:57:59;;;;;;;4.45;2.80;;;;;;;8.60;76.54;98657.72;5003838;28;20334;-71
2021/06/02 03:00:56;;;;;;;3.53;2.78;;;;;;;8.51;75.99;98649.75;5014470;28;20034;-71
2021/06/02 03:06:10;;;;;;;3.15;2.20;;;;;;;8.33;75.65;98649.31;4994336;28;20042;-68
2021/06/02 03:09:00;;;;;;;4.40;2.75;;;;;;;8.26;76.61;98651.97;4993679;28;20022;-68
2021/06/02 03:11:48;;;;;;;3.78;2.65;;;;;;;8.27;77.08;98658.19;4995001;28;20476;-68
2021/06/02 03:14:35;;;;;;;4.40;2.70;;;;;;;8.09;76.35;98662.16;5008130;28;20487;-69
2021/06/02 03:17:49;;;;;;;4.22;2.63;;;;;;;7.97;76.86;98658.31;4994104;28;20041;-67
2021/06/02 03:20:22;;;;;;;5.50;2.80;;;;;;;8.04;77.05;98663.75;4973018;28;20038;-68
2021/06/02 03:23:09;;;;;;;5.13;3.08;;;;;;;8.09;77.47;98664.84;4972570;28;20499;-68
2021/06/02 03:25:47;;;;;;;5.63;2.88;;;;;;;8.22;77.30;98663.31;4986820;28;20034;-67
2021/06/02 03:28:52;;;;;;;5.65;3.20;;;;;;;8.17;77.07;98666.59;4991335;28;20484;-68
2021/06/02 03:31:28;;;;;;;4.55;3.10;;;;;;;8.18;77.04;98653.97;4994785;28;20034;-68
2021/06/02 03:34:19;;;;;;;5.78;2.60;;;;;;;8.09;76.98;98651.38;4994635;28;20535;-68
2021/06/02 03:37:19;;;;;;;4.35;2.80;;;;;;;8.18;76.54;98659.34;4994365;28;20458;-69
2021/06/02 03:39:49;;;;;;;5.07;2.90;;;;;;;8.21;75.79;98661.66;4988487;28;20034;-68
2021/06/02 03:42:45;;;;;;;5.22;2.85;;;;;;;8.10;76.77;98663.84;5009527;28;20034;-68
2021/06/02 03:45:38;;;;;;;4.72;2.88;;;;;;;7.96;76.00;98663.88;4991253;28;20132;-68
2021/06/02 03:48:43;;;;;;;5.15;3.30;;;;;;;8.07;77.31;98672.31;4993831;28;20018;-68
2021/06/02 03:51:37;;;;;;;5.28;2.83;;;;;;;8.16;76.96;98672.19;4986060;28;20372;-68
2021/06/02 03:54:20;;;;;;;6.68;2.85;;;;;;;8.15;76.92;98670.50;4993839;28;20030;-68
2021/06/02 03:57:19;;;;;;;4.20;2.20;;;;;;;8.20;76.49;98670.75;4993963;28;20038;-68
2021/06/02 03:59:56;;;;;;;;;;;;;;;8.17;76.00;98680.06;4994695;28;20056;-69
2021/06/02 04:02:33;;;;;;;8.63;2.40;;;;;;;8.23;75.77;98673.09;4993247;28;19937;-68
2021/06/02 04:05:21;;;;;;;4.47;2.30;;;;;;;8.27;74.98;98675.19;4992018;28;20081;-68
2021/06/02 04:08:11;;;;;;;4.60;2.70;;;;;;;8.40;75.21;98674.53;4994490;28;20068;-68
2021/06/02 04:10:51;;;;;;;3.05;2.15;;;;;;;8.40;75.21;98668.31;4994773;28;20022;-68
2021/06/02 04:13:35;;;;;;;4.00;2.70;;;;;;;8.45;76.17;98664.00;4991416;28;20036;-68
2021/06/02 04:16:14;;;;;;;3.60;2.70;;;;;;;8.48;75.08;98671.69;5001719;28;20160;-68
2021/06/02 04:18:46;;;;;;;4.60;2.33;;;;;;;8.54;75.31;98676.34;4979922;28;20053;-68
2021/06/02 04:21:17;;;;;;;3.78;2.58;;;;;;;8.50;73.66;98672.34;4993573;28;20061;-69
2021/06/02 04:23:44;;;;;;;6.18;2.78;;;;;;;8.56;74.43;98676.13;4992204;28;20026;-67
2021/06/02 04:26:11;;;;;;;3.65;2.80;;;;;;;8.69;75.11;98688.91;4992474;28;20046;-68
2021/06/02 04:28:37;;;;;;;5.05;2.78;;;;;;;8.76;74.35;98681.69;4993034;28;20502;-69
2021/06/02 04:31:09;;;;;;;5.22;3.35;;;;;;;8.76;74.10;98681.69;5007488;28;20029;-68
2021/06/02 04:33:36;;;;;;;4.40;2.95;;;;;;;8.79;74.05;98694.78;4992993;28;20030;-68
2021/06/02 04:36:07;;;;;;;5.60;2.60;;;;;;;8.76;73.65;98689.78;4993720;28;20031;-68
2021/06/02 04:38:32;;;;;;;4.88;2.60;;;;;;;8.68;74.32;98681.84;4992800;28;20113;-69
2021/06/02 04:41:03;;;;;;;5.80;2.85;;;;;;;8.76;74.18;98684.41;4994428;28;20441;-68
2021/06/02 04:43:31;;;;;;;6.45;3.38;;;;;;;8.95;74.07;98686.41;4993645;28;20030;-67
2021/06/02 04:46:01;;;;;;;3.43;2.60;;;;;;;9.15;73.22;98693.84;4990583;28;20022;-76
2021/06/02 04:48:28;;;;;;;4.45;3.30;;;;;;;9.32;72.52;98692.47;4986878;28;20026;-75
2021/06/02 04:51:31;;;;;;;5.30;2.95;;;;;;;9.57;72.22;98692.03;4987872;28;20026;-75
2021/06/02 04:53:56;;;;;;;6.50;2.15;;;;;;;9.79;72.17;98692.75;5006352;28;20134;-76
2021/06/02 04:56:30;;;;;;;4.80;2.67;;;;;;;9.92;72.34;98694.66;4980558;28;20086;-75
2021/06/02 04:59:30;;;;;;;3.92;2.58;;;;;;;10.04;71.87;98695.75;4980746;28;20106;-75
2021/06/02 05:02:11;;;;;;;;;;;;;;;10.29;70.39;98693.34;4991447;28;20022;-75
2021/06/02 05:04:57;;;;;;;3.60;2.38;;;;;;;10.51;69.48;98703.00;4994956;28;19913;-75
2021/06/02 05:07:41;;;;;;;6.53;3.05;;;;;;;10.68;68.92;98700.72;4997348;28;20061;-74
2021/06/02 05:11:03;;;;;;;9.05;3.10;;;;;;;10.88;68.24;98706.16;4990832;28;20052;-68
2021/06/02 05:14:06;;;;;;;5.72;2.40;;;;;;;11.08;69.22;98711.56;4979269;28;20392;-70
2021/06/02 05:16:41;;;;;;;3.47;2.65;;;;;;;11.34;68.14;98713.44;4966707;28;20101;-72
2021/06/02 05:22:42;;;;;;;5.20;2.75;;;;;;;11.86;66.30;98710.81;4976042;28;20035;-73
2021/06/02 05:25:42;;;;;;;6.10;3.40;;;;;;;12.02;65.22;98707.63;4998933;28;20038;-73
2021/06/02 05:28:38;;;;;;;4.85;3.28;;;;;;;12.04;65.08;98719.09;4984648;28;20104;-73
2021/06/02 05:31:25;;;;;;;5.93;3.20;;;;;;;12.34;64.48;98709.56;4998380;28;20068;-74
2021/06/02 05:34:15;;;;;;;4.35;2.80;;;;;;;12.63;63.42;98710.88;4981679;28;20563;-73
2021/06/02 05:37:10;;;;;;;4.90;2.92;;;;;;;12.92;63.34;98709.41;4975411;28;20057;-67
2021/06/02 05:39:35;;;;;;;4.13;2.72;;;;;;;13.19;62.29;98722.75;4980515;28;20018;-68
2021/06/02 05:42:23;;;;;;;8.73;3.13;;;;;;;13.35;60.59;98717.63;4996436;28;20357;-68
2021/06/02 05:45:22;;;;;;;5.93;2.60;;;;;;;13.44;60.10;98706.44;4996733;28;20519;-67
2021/06/02 05:48:25;;;;;;;5.32;2.72;;;;;;;13.73;59.62;98716.63;4985579;28;20371;-67
2021/06/02 05:51:15;;;;;;;4.25;3.05;;;;;;;13.68;60.04;98710.19;4995070;28;20053;-67
2021/06/02 05:54:02;;;;;;;5.72;3.25;;;;;;;13.63;61.53;98716.31;4983187;28;20026;-67
2021/06/02 05:56:37;;;;;;;6.97;3.15;;;;;;;13.74;62.43;98720.16;5003800;28;20422;-69
2021/06/02 05:59:35;;;;;;;8.10;3.28;;;;;;;13.94;62.28;98718.06;4985568;28;20113;-69
2021/06/02 06:02:23;;;;;;;4.68;3.10;;;;;;;14.20;62.20;98713.31;4986131;28;20035;-69
2021/06/02 06:05:13;;;;;;;6.27;3.13;;;;;;;14.60;61.47;98719.09;4978211;28;20583;-69
2021/06/02 06:08:09;;;;;;;7.25;3.13;;;;;;;14.94;59.78;98710.44;4982875;28;20292;-69
2021/06/02 06:11:29;;;;;;;8.55;3.00;;;;;;;15.16;58.91;98718.88;4983101;28;20053;-69
2021/06/02 06:14:06;;;;;;;7.40;3.00;;;;;;;15.46;58.52;98710.63;4957976;28;20131;-67
2021/06/02 06:16:52;;;;;;;7.18;2.70;;;;;;;15.67;57.88;98703.72;4973954;28;20484;-69
2021/06/02 06:19:30;;;;;;;11.57;3.13;;;;;;;15.86;57.27;98704.44;4987932;28;20030;-72
2021/06/02 06:22:24;;;;;;;4.22;2.92;;;;;;;15.94;57.02;98707.59;4985336;28;20078;-76
2021/06/02 06:24:59;;;;;;;13.50;3.30;;;;;;;16.37;55.66;98706.31;4973884;28;20039;-76
2021/06/02 06:27:34;;;;;;;10.20;2.92;;;;;;;16.60;55.63;98710.81;5019527;28;20034;-77
2021/06/02 06:30:10;;;;;;;11.48;3.22;;;;;;;16.77;55.32;98710.91;5014254;28;20041;-78
2021/06/02 06:32:39;;;;;;;4.65;3.03;;;;;;;16.78;55.26;98707.09;5015867;28;20064;-69
2021/06/02 06:35:08;;;;;;;10.20;2.88;;;;;;;17.14;55.29;98717.81;5017708;28;20164;-72
2021/06/02 06:37:38;;;;;;;11.90;2.70;;;;;;;17.62;53.75;98717.19;5003403;28;20030;-70
2021/06/02 06:40:06;;;;;;;5.15;2.78;;;;;;;17.89;52.38;98711.00;5010046;28;20034;-69
2021/06/02 06:42:39;;;;;;;8.85;3.80;;;;;;;18.14;51.61;98708.63;5011533;28;20026;-70
2021/06/02 06:45:09;;;;;;;13.23;3.47;;;;;;;18.57;50.88;98719.78;5010787;28;20053;-69
2021/06/02 06:47:35;;;;;;;6.57;2.95;;;;;;;18.83;50.63;98704.44;5006457;28;20030;-69
2021/06/02 06:50:02;;;;;;;8.48;3.22;;;;;;;19.07;49.81;98702.19;5010083;28;20034;-70
2021/06/02 06:52:29;;;;;;;6.20;3.22;;;;;;;20.50;47.71;98688.47;5008262;28;20030;-70
2021/06/02 06:54:58;;;;;;;6.97;2.80;;;;;;;22.24;43.61;98693.91;5009588;28;20049;-69
2021/06/02 06:57:24;;;;;;;7.28;3.15;;;;;;;23.95;41.33;98688.47;5006468;28;20027;-69
2021/06/02 06:59:50;;;;;;;9.90;2.50;;;;;;;25.24;38.78;98676.47;5002891;28;20120;-70
2021/06/02 07:02:17;;;;;;;4.15;2.33;;;;;;;25.25;36.68;98684.44;4993658;28;20026;-71
2021/06/02 07:04:43;;;;;;;3.53;2.30;;;;;;;27.26;33.81;98680.03;4996248;28;20057;-71
2021/06/02 07:07:10;;;;;;;3.08;2.17;;;;;;;28.42;32.37;98671.56;4994563;28;20030;-71
2021/06/02 07:09:36;;;;;;;3.78;2.42;;;;;;;27.58;33.11;98680.88;4993524;28;20025;-70
2021/06/02 07:12:01;;;;;;;7.10;2.33;;;;;;;30.22;29.92;98683.16;4994242;28;20424;-70
2021/06/02 07:14:30;;;;;;;6.32;2.45;;;;;;;30.36;29.63;98672.56;4994837;28;20031;-71
2021/06/02 07:17:03;;;;;;;3.28;2.08;;;;;;;31.30;27.94;98671.38;4994803;28;20027;-71
2021/06/02 07:19:29;;;;;;;6.10;2.25;;;;;;;31.14;29.36;98684.34;4993178;28;20029;-71
2021/06/02 07:21:57;;;;;;;6.38;2.10;;;;;;;31.15;28.97;98681.22;4993308;28;20030;-71
2021/06/02 07:24:24;;;;;;;3.90;2.10;;;;;;;30.94;27.79;98678.47;4994051;28;20025;-70
2021/06/02 07:26:50;;;;;;;11.00;2.20;;;;;;;31.57;27.42;98675.56;4993928;28;20080;-71
2021/06/02 07:29:15;;;;;;;5.35;1.80;;;;;;;33.02;26.88;98668.66;4994131;28;20030;-71
2021/06/02 07:31:40;;;;;;;6.88;1.90;;;;;;;34.23;25.76;98679.53;4993090;28;20028;-71
2021/06/02 07:34:06;;;;;;;4.32;2.00;;;;;;;33.64;26.61;98679.59;4989704;28;20034;-71
2021/06/02 07:36:32;;;;;;;4.38;1.83;;;;;;;33.42;25.42;98672.56;4992029;28;20061;-70
2021/06/02 07:38:58;;;;;;;6.30;1.92;;;;;;;33.46;25.46;98673.47;4991648;28;20064;-71
2021/06/02 07:41:24;;;;;;;2.35;1.50;;;;;;;33.21;24.74;98670.00;4993184;28;20117;-70
2021/06/02 07:43:49;;;;;;;9.38;1.70;;;;;;;32.95;24.65;98665.63;4993031;28;20641;-71
2021/06/02 07:46:14;;;;;;;2.97;1.33;;;;;;;32.94;23.96;98664.81;4993999;28;20064;-69
2021/06/02 07:48:40;;;;;;;4.15;1.42;;;;;;;34.15;23.28;98666.50;4994050;28;20404;-69
2021/06/02 07:51:05;;;;;;;8.05;1.50;;;;;;;34.35;22.81;98666.56;4993502;28;20076;-69
2021/06/02 07:53:31;;;;;;;3.65;1.55;;;;;;;33.52;23.19;98672.06;4991416;28;20023;-71
2021/06/02 07:55:56;;;;;;;3.67;1.50;;;;;;;32.56;23.87;98667.25;4993256;28;20401;-71
2021/06/02 07:58:21;;;;;;;1.98;1.20;;;;;;;33.49;23.13;98667.97;4993735;28;20598;-70
2021/06/02 08:00:47;;;;;;;5.63;1.60;;;;;;;33.81;22.85;98668.03;4993479;28;20034;-77
2021/06/02 08:03:12;;;;;;;4.32;1.20;;;;;;;34.69;20.63;98668.63;5000199;28;20018;-76
2021/06/02 08:05:37;;;;;;;1.65;1.23;;;;;;;34.60;20.39;98676.41;5000982;28;20021;-76
2021/06/02 08:08:03;;;;;;;3.30;1.30;;;;;;;35.14;20.49;98671.19;4982842;28;20134;-75
2021/06/02 08:10:29;;;;;;;3.97;1.50;;;;;;;33.96;21.20;98669.22;4977143;28;20114;-70
2021/06/02 08:12:54;;;;;;;4.03;1.20;;;;;;;34.54;21.76;98672.25;4977937;28;20042;-71
2021/06/02 08:15:20;;;;;;;2.33;1.25;;;;;;;34.37;21.52;98672.63;4992660;28;20361;-70
2021/06/02 08:17:46;;;;;;;4.78;1.27;;;;;;;32.93;22.50;98673.56;4987798;28;20027;-71
2021/06/02 08:20:13;;;;;;;3.50;1.45;;;;;;;33.89;21.34;98675.47;4993587;28;20133;-71
2021/06/02 08:22:38;;;;;;;2.38;1.40;;;;;;;33.86;21.78;98681.81;4993998;28;20057;-71
2021/06/02 08:25:10;;;;;;;1.80;1.30;;;;;;;33.49;22.71;98684.81;4997318;28;20488;-70
2021/06/02 08:27:36;;;;;;;4.00;1.10;;;;;;;34.97;21.01;98683.63;4995074;28;20440;-70
2021/06/02 08:30:02;;;;;;;1.80;1.20;;;;;;;33.14;22.39;98679.84;4994277;28;20026;-72
2021/06/02 08:32:28;;;;;;;2.28;1.30;;;;;;;34.76;22.40;98684.81;4983708;28;20034;-71
2021/06/02 08:34:53;;;;;;;2.05;1.02;;;;;;;36.10;19.02;98678.63;4986101;28;20031;-71
2021/06/02 08:37:19;;;;;;;2.75;1.08;;;;;;;36.46;19.02;98689.66;4981916;28;20038;-71
2021/06/02 08:39:44;;;;;;;1.95;1.10;;;;;;;35.70;19.04;98682.72;4982172;28;20125;-71
2021/06/02 08:42:11;;;;;;;2.42;1.00;;;;;;;36.02;19.07;98690.94;4984583;28;20105;-72
2021/06/02 08:44:37;;;;;;;2.90;0.93;;;;;;;36.41;17.68;98679.50;4979853;28;20023;-70
2021/06/02 08:47:04;;;;;;;1.80;0.90;;;;;;;35.20;18.45;98686.56;4982464;28;20078;-72
2021/06/02 08:49:29;;;;;;;2.50;1.00;;;;;;;35.90;18.55;98680.69;4981555;28;20532;-71
2021/06/02 08:51:55;;;;;;;2.00;0.88;;;;;;;35.93;18.46;98690.38;4984758;28;20110;-71
2021/06/02 08:54:24;;;;;;;1.95;0.85;;;;;;;36.45;16.74;98680.41;4984603;28;20145;-72
2021/06/02 08:56:51;;;;;;;1.63;0.90;;;;;;;36.64;17.02;98668.22;4986427;28;20038;-71
2021/06/02 08:59:17;;;;;;;3.63;1.10;;;;;;;36.63;17.15;98672.22;4999661;28;20026;-70
2021/06/02 09:01:42;;;;;;;1.33;0.75;;;;;;;36.74;17.92;98675.19;5001073;28;20026;-75
2021/06/02 09:04:09;;;;;;;3.30;1.02;;;;;;;37.05;17.32;98669.19;5007871;23;20491;-69
2021/06/02 09:06:44;;;;;;;2.67;0.93;;;;;;;37.96;17.15;98674.59;4996431;28;20029;-71
2021/06/02 09:09:12;;;;;;;1.05;0.82;;;;;;;38.74;16.13;98663.09;5013953;28;20104;-72
2021/06/02 09:11:40;;;;;;;1.10;0.80;;;;;;;37.24;18.16;98668.22;5013995;28;20022;-68
2021/06/02 09:14:24;;;;;;;3.35;1.20;;;;;;;37.09;18.59;98672.03;5003462;28;20090;-67
2021/06/02 09:16:55;;;;;;;4.88;0.93;;;;;;;38.08;18.73;98665.84;4981965;28;20137;-68
2021/06/02 09:19:55;;;;;;;1.30;0.90;;;;;;;37.31;18.51;98677.94;4990796;28;20057;-67
2021/06/02 09:22:22;;;;;;;5.38;1.10;;;;;;;37.79;17.74;98666.78;4986105;28;20507;-67
2021/06/02 09:24:59;;;;;;;0.75;0.73;;;;;;;36.82;18.10;98676.91;4990264;28;20578;-67
2021/06/02 09:27:48;;;;;;;1.08;0.80;;;;;;;37.00;16.93;98679.97;4986417;28;20484;-68
2021/06/02 09:30:20;;;;;;;2.40;0.85;;;;;;;37.94;17.17;98682.66;4992425;28;20023;-67
2021/06/02 09:33:03;;;;;;;1.30;0.70;;;;;;;37.06;17.57;98675.66;4993106;28;20041;-67
2021/06/02 09:35:39;;;;;;;2.50;0.80;;;;;;;37.78;17.14;98670.78;4991058;28;20396;-67
2021/06/02 09:38:06;;;;;;;1.15;0.70;;;;;;;38.30;15.84;98671.66;4992207;28;20110;-68
2021/06/02 09:40:37;;;;;;;1.40;0.70;;;;;;;38.08;15.81;98667.88;4981907;28;20034;-67
2021/06/02 09:43:04;;;;;;;2.55;0.80;;;;;;;38.69;14.39;98671.13;4978171;28;20029;-67
2021/06/02 09:45:29;;;;;;;1.85;0.75;;;;;;;38.42;13.90;98674.19;4984699;28;20109;-66
2021/06/02 09:47:57;;;;;;;0.95;0.85;;;;;;;37.49;15.04;98679.78;4991081;28;20530;-67
2021/06/02 09:50:27;;;;;;;3.87;0.70;;;;;;;36.26;17.41;98672.84;4992165;28;20025;-67
2021/06/02 09:52:54;;;;;;;1.67;0.75;;;;;;;36.90;16.41;98669.38;4992173;28;20033;-67
2021/06/02 09:55:34;;;;;;;1.45;0.80;;;;;;;38.23;15.46;98663.13;4991963;28;20027;-67
2021/06/02 09:58:05;;;;;;;1.33;0.90;;;;;;;37.53;15.43;98665.72;4990839;28;20045;-66
2021/06/02 10:00:32;;;;;;;1.63;0.80;;;;;;;35.98;15.93;98676.78;4990232;28;20037;-67
2021/06/02 10:03:01;;;;;;;1.42;0.82;;;;;;;36.45;16.65;98663.47;4994642;28;20030;-67
2021/06/02 10:05:35;;;;;;;3.25;0.88;;;;;;;37.51;17.06;98665.28;4984067;28;20031;-67
2021/06/02 10:08:01;;;;;;;2.47;0.70;;;;;;;36.91;16.87;98665.34;4990285;28;20030;-67
2021/06/02 10:10:26;;;;;;;1.67;0.70;;;;;;;38.14;16.24;98646.53;4996106;28;20034;-68
2021/06/02 10:12:59;;;;;;;1.48;0.80;;;;;;;38.03;16.37;98669.03;4995491;28;20109;-68
2021/06/02 10:15:33;;;;;;;1.58;0.80;;;;;;;38.36;16.60;98659.63;4994575;28;20026;-67
2021/06/02 10:17:59;;;;;;;1.95;0.68;;;;;;;38.46;16.15;98658.06;4986478;28;20031;-67
2021/06/02 10:20:25;;;;;;;2.58;0.80;;;;;;;38.04;16.80;98662.19;4995860;28;20034;-67
2021/06/02 10:22:53;;;;;;;1.70;0.77;;;;;;;37.99;16.39;98651.28;4996340;28;20037;-75
2021/06/02 10:25:20;;;;;;;3.00;0.50;;;;;;;39.54;15.51;98661.41;4992436;28;20027;-71
2021/06/02 10:27:48;;;;;;;0.82;0.60;;;;;;;38.91;15.37;98661.59;4990929;28;20485;-69
2021/06/02 10:30:14;;;;;;;0.88;0.57;;;;;;;38.75;15.67;98659.06;4997083;28;20030;-69
2021/06/02 10:32:41;;;;;;;2.50;0.60;;;;;;;39.75;15.02;98664.28;4996122;28;20055;-68
2021/06/02 10:35:07;;;;;;;1.95;0.70;;;;;;;40.08;14.36;98662.28;4996949;28;20022;-68
2021/06/02 10:37:34;;;;;;;1.42;0.73;;;;;;;39.65;14.29;98668.72;4985286;28;20030;-68
2021/06/02 10:40:04;;;;;;;2.95;0.60;;;;;;;37.45;14.51;98661.97;4997052;28;20434;-76
2021/06/02 10:42:41;;;;;;;1.30;0.68;;;;;;;37.63;15.04;98665.03;4996158;28;20128;-68
2021/06/02 10:45:20;;;;;;;1.02;0.70;;;;;;;38.05;15.27;98671.50;4990890;28;20066;-72
2021/06/02 10:47:53;;;;;;;1.40;0.57;;;;;;;38.58;14.91;98668.25;4991957;28;20033;-73
2021/06/02 10:50:38;;;;;;;1.17;0.50;;;;;;;39.10;13.99;98662.47;4998584;28;20026;-70
2021/06/02 10:53:19;;;;;;;1.52;0.60;;;;;;;37.35;15.05;98665.50;5000317;28;20034;-73
2021/06/02 10:55:44;;;;;;;2.15;0.50;;;;;;;38.01;15.73;98662.97;4998394;28;20037;-71
2021/06/02 10:58:15;;;;;;;1.23;0.70;;;;;;;38.61;14.95;98666.66;5002461;28;20058;-70
2021/06/02 11:00:41;;;;;;;1.15;0.57;;;;;;;39.38;15.57;98667.44;4987342;28;20026;-70
2021/06/02 11:03:28;;;;;;;0.77;0.40;;;;;;;40.39;14.23;98672.00;4996578;28;20041;-70
2021/06/02 11:06:06;;;;;;;0.70;0.60;;;;;;;38.90;14.61;98659.16;4986675;28;20033;-70
2021/06/02 11:08:49;;;;;;;2.78;0.80;;;;;;;38.63;14.83;98667.88;4990077;28;20487;-70
2021/06/02 11:11:29;;;;;;;3.08;0.90;;;;;;;39.40;14.48;98677.16;4989642;28;20037;-68
2021/06/02 11:14:16;;;;;;;2.58;0.80;;;;;;;39.16;14.60;98661.69;4996534;28;20504;-70
2021/06/02 11:17:07;;;;;;;1.30;0.50;;;;;;;38.97;13.54;98660.00;5000329;28;20431;-70
2021/06/02 11:20:08;;;;;;;0.50;0.50;;;;;;;38.73;13.92;98660.69;4991509;28;20034;-70
2021/06/02 11:22:35;;;;;;;2.05;0.80;;;;;;;38.43;13.50;98658.88;4990093;28;20545;-71
2021/06/02 11:25:00;;;;;;;1.58;1.00;;;;;;;37.24;14.66;98665.38;4990805;28;20096;-70
2021/06/02 11:27:25;;;;;;;0.50;0.50;;;;;;;36.95;14.43;98666.22;4988038;28;20484;-73
2021/06/02 11:29:50;;;;;;;2.20;0.60;;;;;;;37.65;13.71;98656.97;4994811;28;20525;-69
2021/06/02 11:32:17;;;;;;;1.75;0.60;;;;;;;36.05;15.50;98667.63;4994945;28;20033;-69
2021/06/02 11:34:44;;;;;;;0.70;0.60;;;;;;;38.07;14.48;98664.25;4994542;28;20041;-68
2021/06/02 11:37:13;;;;;;;0.83;0.50;;;;;;;38.28;13.36;98660.78;5002824;28;20030;-73
2021/06/02 11:39:40;;;;;;;1.33;0.57;;;;;;;38.68;14.10;98661.06;4993989;28;20022;-73
2021/06/02 11:42:07;;;;;;;1.27;0.63;;;;;;;38.77;13.31;98653.81;4991384;28;20026;-69
2021/06/02 11:44:37;;;;;;;0.68;0.47;;;;;;;38.37;13.14;98666.88;4991388;28;20049;-73
2021/06/02 11:47:03;;;;;;;0.57;0.45;;;;;;;38.36;13.50;98648.31;4993182;28;20393;-71
2021/06/02 11:49:33;;;;;;;1.60;0.80;;;;;;;39.48;13.26;98660.19;4990161;28;20025;-72
2021/06/02 11:52:10;;;;;;;0.82;0.55;;;;;;;39.38;12.67;98661.78;4991033;28;20050;-72
2021/06/02 11:54:51;;;;;;;0.30;0.30;;;;;;;39.30;10.76;98660.09;4986578;28;20041;-73
2021/06/02 11:57:25;;;;;;;0.40;0.40;;;;;;;37.92;11.28;98660.44;4995238;28;20026;-70
2021/06/02 11:59:51;;;;;;;0.30;0.30;;;;;;;39.38;10.24;98659.78;4998287;28;20083;-70
2021/06/02 12:02:17;;;;;;;1.17;0.40;;;;;;;38.52;11.89;98661.38;4996365;28;20518;-67
2021/06/02 12:04:42;;;;;;;2.13;0.38;;;;;;;38.58;11.57;98660.56;4988967;28;20037;-70
2021/06/02 12:07:25;;;;;;;0.55;0.47;;;;;;;36.42;12.26;98647.34;4993787;28;20505;-72
2021/06/02 12:09:52;;;;;;;0.95;0.50;;;;;;;37.74;12.85;98651.00;4985247;28;20035;-71
2021/06/02 12:12:18;;;;;;;0.65;0.50;;;;;;;38.40;12.33;98656.00;4974759;28;20103;-71
2021/06/02 12:14:54;;;;;;;0.88;0.50;;;;;;;38.26;13.01;98653.88;4982224;28;20085;-65
2021/06/02 12:17:27;;;;;;;0.85;0.32;;;;;;;38.00;12.64;98657.72;4982892;28;20030;-66
2021/06/02 12:19:52;;;;;;;1.92;0.43;;;;;;;37.95;13.18;98661.69;4992620;28;20081;-66